Relevés horaires Beauvechain (Belgique)


Relevés horaires à Beauvechain - Mercredi 12 Févr. 2020
Heure UTC1 Température [°C] Vent [km/h] Hum. [%] Pres.4 [hPa] Visi. [Km] Nébu. [octa] Préc.5 [mm] Cond.
2m. Res. Ros. Dir.2 Vit. Moy. Raf.3
23:00 3.8 1.4 0.7 SSO 9.3 -- 11.1 80 1017.2(-0.9/3h) 20 -- -- --
22:00 3.7 1.8 0.3 SO 7.4 -- 13.0 78 1017.7(-0.5/3h) 20 5/8 -- --
21:00 4.1 1.7 0.2 SO 9.3 -- 13.0 76 1017.7(-0.4/3h) 20 5/8 -- --
20:00 4.4 2.6 0.1 SO 7.4 -- 9.3 74 1018.2(0.3/3h) 20 5/8 -- --
19:00 4.6 2.8 -0.5 SO 7.4 -- 11.1 69 1018.2(0.9/3h) 20 3/8 -- --
18:00 5.3 3.6 -0.7 OSO 7.4 -- 24.1 65 1018.2(1.5/3h) 20 4/8 trace/12h
--
17:00 5.1 3.4 -1.8 O 7.4 -- 16.7 61 1017.7(1.4/3h) 20 4/8 -- --
16:00 6.1 3.8 -2.3 O 11.1 -- 20.4 55 1017.2(0.7/3h) 20 4/8 -- --
15:00 6.0 3.3 -1.2 O 13.0 -- 24.1 60 1016.6(-0.2/3h) 20 4/8 -- --
14:00 6.8 4.6 1.4 OSO 11.1 -- 20.4 68 1016.2(-0.3/3h) 20 5/8 -- Il y a eu une averse de pluie à la station au cours de l'heure précédente, mais il n'y en a pas au moment de l'observation
13:00 6.2 3.5 0.4 OSO 13.0 -- 24.1 66 1016.3(0.2/3h) 20 6/8 -- --
12:00 6.5 3.9 0.9 OSO 13.0 -- 24.1 67 1016.7(1.0/3h) 20 5/8 -- --
11:00 6.3 3.1 0.6 OSO 16.7 -- 24.1 67 1016.6(1.0/3h) 20 3/8 -- --
10:00 4.6 1.3 1.1 OSO 14.8 -- 24.1 78 1016.2(1.4/3h) 20 3/8 -- --
09:00 4.3 1.2 1.4 SO 13.0 -- 22.2 81 1015.8(1.4/3h) 20 3/8 -- --
08:00 3.2 -0.1 1.0 SO 13.0 -- 20.4 85 1015.7(1.5/3h) 20 2/8 -- --
07:00 3.0 -0.4 0.6 SO 13.0 -- 22.2 84 1014.8(1.0/3h) 20 3/8 -- --
06:00 3.2 -0.7 0.6 SO 16.7 -- 25.9 83 1014.5(0.8/3h) 20 -- -- --
05:00 3.4 0.1 0.4 SO 13.0 -- 22.2 81 1014.2(0.9/3h) 20 -- -- --
04:00 3.3 0 0.5 SO 13.0 -- 25.9 82 1013.7(0.6/3h) 20 -- -- --
03:00 3.5 -0.1 0.2 SO 14.8 -- 24.1 79 1013.6(0.4/3h) 20 -- -- --
02:00 3.1 -0.2 -- SO 13.0 -- 22.2 -- 1013.2(0.3/3h) 19 -- -- --
01:00 3.3 -0.3 -0.1 SO 14.8 -- 24.1 78 1013.1(0.2/3h) 20 -- -- --
00:00 3.5 -0.1 -0.7 SO 14.8 -- 25.9 74 1013.1(0.5/3h) 19 -- -- --

1 Coordinated Universal Time. Actuellement il est 19:00 locale et 17:00 UTC.

2 Le vent souffle depuis la direction indiquée vers la direction oposée.

3 Les rafales max. sont disponible 40 min après l'heure du relevé.

4 Pour les stations d'altitude (plus de 600m) le géopotentiel du niveau le plus proche de la pression obligatoire est indiqué.

5 Les stations disposant d'un diffuseur peuvent indiquer "trace". Cela signifie que des précipitations ont touchés le sol mais que la quantité est inférieure à 0.1 mm.

Récapitulatif de la journée
Température [°C] Vent [km/h] Ensoleillement4 [h] Precipitations totale5 [mm] Pression [Hpa]
Min1 Max.2 Moy.3 Max. Min Max.
2.8 7.5 0 25.9 0 h 0 min 0 1013.1 1018.2

1 Température minimale relevée entre 18:00 UTC la veille et 18:00 UTC le jour donné.

2 Température maximale relevée entre 06:00 UTC le jour donné et 06:00 UTC le lendemain.

3 Vent moyen de la journée basé sur les relevés horaires.

4 Ensoleillement en heures relevé entre 06:00 UTC la veille et 06:00 UTC le jour donné.

5 Précipitations totales tombées entre 06:00 UTC la jour donné et 06:00 UTC le lendemain.

Graphiques horaires